Gold Beach, OR

3:42 AM PDT on May 22, 2015 (GMT -0700)
MesoWest | | Change Station
CLOSE
Current Station
Personal Weather Station
Location: Gold Beach, OR
Elevation: 16 ft
Nearby Weather Stations

Elev 16 ft 42.41 °N, 124.42 °W | Updated 23 minutes ago

Fog
Fog
52 °F
Feels Like 52 °F
N
0
Wind Variable Wind from North
Gusts 0.0 mph

Today
High -- | Low -- °F
--% Chance of Precip.
Yesterday
High -- | Low -- °F
Precip. -- in
5:49 AM 8:39 PM
Waxing Crescent, 20% visible
Pressure 30.00 in
Visibility 2.5 miles
Clouds Overcast 300 ft
Dew Point 52 °F
Humidity 100%
Rainfall in
Snow Depth Not available.
UV 0 out of 12
Pollen 3.70 out of 12
Air Quality Not available.
Flu Activity Local Activity
SPECI KBOK 221038Z AUTO 00000KT 2 1/2SM BR OVC003 12/12 A3000 RMK AO2

More Conditions Fewer Conditions

Pressure 30.00 in
Visibility 2.5 miles
Clouds Overcast 300 ft
Dew Point 52 °F
Humidity 100%
Rainfall in
Snow Depth Not available.
UV 0 out of 12
Pollen 3.70 out of 12
Air Quality Not available.
Flu Activity Local Activity
SPECI KBOK 221038Z AUTO 00000KT 2 1/2SM BR OVC003 12/12 A3000 RMK AO2

More Conditions Fewer Conditions

10-Day Weather Forecast

Almanac

Astronomy

May. 22, 2015 Rise Set
Actual Time
Civil Twilight
Nautical Twilight
Astronomical Twilight
Moon
Length of Visible Light
Length of Day
Tomorrow will be .
, % of the Moon is Illuminated

Today's Extremes

State Highs State Lows

Community

WunderPhotos

Upload Photos

1,823,200 photos uploaded!

WunderBlogs® & News

Nearby

Air Quality

  Air Quality AQ Index Pollutant
Not available.

Snow Depth

Station Depth Elevation

Earthquake Activity

City Distance Mag. Time & Date
Minimum magnitude displayed is 2.5.

Coastal Water Temperatures

Place Temperature

Stations

Nearby Weather Stations

Station Location Temp. Windchill Dew Point Humidity Wind Precip. Elev Updated Type